sensor_id;sensor_type;location;lat;lon;timestamp;P1;durP1;ratioP1;P2;durP2;ratioP2
6485;SDS011;3276;48.490;9.222;2024-01-30T00:01:23;9.70;;;6.73;;
6485;SDS011;3276;48.490;9.222;2024-01-30T00:03:48;9.73;;;7.03;;
6485;SDS011;3276;48.490;9.222;2024-01-30T00:06:18;9.73;;;6.75;;
6485;SDS011;3276;48.490;9.222;2024-01-30T00:08:44;11.30;;;6.43;;
6485;SDS011;3276;48.490;9.222;2024-01-30T00:11:11;11.32;;;7.15;;
6485;SDS011;3276;48.490;9.222;2024-01-30T00:13:37;16.20;;;8.03;;
6485;SDS011;3276;48.490;9.222;2024-01-30T00:16:02;8.50;;;6.83;;
6485;SDS011;3276;48.490;9.222;2024-01-30T00:18:28;13.95;;;8.52;;
6485;SDS011;3276;48.490;9.222;2024-01-30T00:20:54;10.23;;;6.53;;
6485;SDS011;3276;48.490;9.222;2024-01-30T00:23:19;12.20;;;7.67;;
6485;SDS011;3276;48.490;9.222;2024-01-30T00:25:45;13.00;;;8.53;;
6485;SDS011;3276;48.490;9.222;2024-01-30T00:28:11;8.77;;;6.80;;
6485;SDS011;3276;48.490;9.222;2024-01-30T00:30:36;9.27;;;7.90;;
6485;SDS011;3276;48.490;9.222;2024-01-30T00:33:02;10.70;;;6.57;;
6485;SDS011;3276;48.490;9.222;2024-01-30T00:35:27;10.13;;;7.07;;
6485;SDS011;3276;48.490;9.222;2024-01-30T00:37:54;12.27;;;8.20;;
6485;SDS011;3276;48.490;9.222;2024-01-30T00:40:19;14.17;;;6.43;;
6485;SDS011;3276;48.490;9.222;2024-01-30T00:42:45;8.60;;;6.73;;
6485;SDS011;3276;48.490;9.222;2024-01-30T00:45:17;12.20;;;8.27;;
6485;SDS011;3276;48.490;9.222;2024-01-30T00:47:43;10.38;;;7.57;;
6485;SDS011;3276;48.490;9.222;2024-01-30T00:50:09;10.53;;;8.07;;
6485;SDS011;3276;48.490;9.222;2024-01-30T00:52:35;10.50;;;7.77;;
6485;SDS011;3276;48.490;9.222;2024-01-30T00:55:01;10.57;;;8.13;;
6485;SDS011;3276;48.490;9.222;2024-01-30T00:57:27;11.10;;;7.75;;
6485;SDS011;3276;48.490;9.222;2024-01-30T00:59:53;9.60;;;6.50;;
6485;SDS011;3276;48.490;9.222;2024-01-30T01:02:18;13.20;;;8.50;;
6485;SDS011;3276;48.490;9.222;2024-01-30T01:04:44;10.80;;;6.93;;
6485;SDS011;3276;48.490;9.222;2024-01-30T01:07:10;11.23;;;7.47;;
6485;SDS011;3276;48.490;9.222;2024-01-30T01:09:36;9.90;;;7.25;;
6485;SDS011;3276;48.490;9.222;2024-01-30T01:12:02;10.60;;;7.60;;
6485;SDS011;3276;48.490;9.222;2024-01-30T01:14:28;10.93;;;7.35;;
6485;SDS011;3276;48.490;9.222;2024-01-30T01:16:53;10.30;;;7.73;;
6485;SDS011;3276;48.490;9.222;2024-01-30T01:19:19;9.90;;;7.50;;
6485;SDS011;3276;48.490;9.222;2024-01-30T01:21:44;8.90;;;6.87;;
6485;SDS011;3276;48.490;9.222;2024-01-30T01:24:10;10.07;;;6.40;;
6485;SDS011;3276;48.490;9.222;2024-01-30T01:26:35;9.00;;;6.03;;
6485;SDS011;3276;48.490;9.222;2024-01-30T01:29:01;10.90;;;7.00;;
6485;SDS011;3276;48.490;9.222;2024-01-30T01:31:29;10.40;;;7.35;;
6485;SDS011;3276;48.490;9.222;2024-01-30T01:33:55;8.60;;;6.88;;
6485;SDS011;3276;48.490;9.222;2024-01-30T01:36:21;16.27;;;8.23;;
6485;SDS011;3276;48.490;9.222;2024-01-30T01:38:47;10.48;;;7.45;;
6485;SDS011;3276;48.490;9.222;2024-01-30T01:41:13;10.93;;;7.10;;
6485;SDS011;3276;48.490;9.222;2024-01-30T01:43:39;9.83;;;6.50;;
6485;SDS011;3276;48.490;9.222;2024-01-30T01:46:04;11.70;;;7.00;;
6485;SDS011;3276;48.490;9.222;2024-01-30T01:48:31;9.45;;;7.47;;
6485;SDS011;3276;48.490;9.222;2024-01-30T01:50:57;12.20;;;7.13;;
6485;SDS011;3276;48.490;9.222;2024-01-30T01:53:24;9.57;;;6.13;;
6485;SDS011;3276;48.490;9.222;2024-01-30T01:55:50;8.30;;;7.13;;
6485;SDS011;3276;48.490;9.222;2024-01-30T01:58:17;11.68;;;6.30;;
6485;SDS011;3276;48.490;9.222;2024-01-30T02:00:46;8.93;;;5.53;;
6485;SDS011;3276;48.490;9.222;2024-01-30T02:03:12;7.57;;;5.50;;
6485;SDS011;3276;48.490;9.222;2024-01-30T02:05:40;8.90;;;5.57;;
6485;SDS011;3276;48.490;9.222;2024-01-30T02:08:06;8.27;;;6.05;;
6485;SDS011;3276;48.490;9.222;2024-01-30T02:10:33;10.50;;;6.32;;
6485;SDS011;3276;48.490;9.222;2024-01-30T02:12:59;7.82;;;5.93;;
6485;SDS011;3276;48.490;9.222;2024-01-30T02:15:24;7.40;;;6.03;;
6485;SDS011;3276;48.490;9.222;2024-01-30T02:17:50;8.50;;;6.33;;
6485;SDS011;3276;48.490;9.222;2024-01-30T02:20:16;6.30;;;5.70;;
6485;SDS011;3276;48.490;9.222;2024-01-30T02:22:41;13.40;;;7.60;;
6485;SDS011;3276;48.490;9.222;2024-01-30T02:25:08;10.55;;;6.63;;
6485;SDS011;3276;48.490;9.222;2024-01-30T02:27:33;11.87;;;6.97;;
6485;SDS011;3276;48.490;9.222;2024-01-30T02:29:59;9.00;;;5.67;;
6485;SDS011;3276;48.490;9.222;2024-01-30T02:32:24;6.20;;;5.50;;
6485;SDS011;3276;48.490;9.222;2024-01-30T02:34:50;12.40;;;6.23;;
6485;SDS011;3276;48.490;9.222;2024-01-30T02:37:16;9.00;;;6.60;;
6485;SDS011;3276;48.490;9.222;2024-01-30T02:39:41;8.63;;;5.45;;
6485;SDS011;3276;48.490;9.222;2024-01-30T02:42:07;10.13;;;6.40;;
6485;SDS011;3276;48.490;9.222;2024-01-30T02:44:33;8.30;;;6.20;;
6485;SDS011;3276;48.490;9.222;2024-01-30T02:46:58;8.80;;;6.47;;
6485;SDS011;3276;48.490;9.222;2024-01-30T02:49:24;9.27;;;6.10;;
6485;SDS011;3276;48.490;9.222;2024-01-30T02:51:49;8.50;;;4.97;;
6485;SDS011;3276;48.490;9.222;2024-01-30T02:54:16;8.90;;;7.78;;
6485;SDS011;3276;48.490;9.222;2024-01-30T02:56:41;9.43;;;5.70;;
6485;SDS011;3276;48.490;9.222;2024-01-30T02:59:07;8.70;;;7.00;;
6485;SDS011;3276;48.490;9.222;2024-01-30T03:01:32;9.67;;;6.13;;
6485;SDS011;3276;48.490;9.222;2024-01-30T03:03:58;6.83;;;5.50;;
6485;SDS011;3276;48.490;9.222;2024-01-30T03:06:23;10.20;;;5.70;;
6485;SDS011;3276;48.490;9.222;2024-01-30T03:08:49;11.27;;;6.47;;
6485;SDS011;3276;48.490;9.222;2024-01-30T03:11:14;7.93;;;5.90;;
6485;SDS011;3276;48.490;9.222;2024-01-30T03:13:40;7.23;;;5.13;;
6485;SDS011;3276;48.490;9.222;2024-01-30T03:16:05;10.30;;;6.00;;
6485;SDS011;3276;48.490;9.222;2024-01-30T03:18:31;8.47;;;5.53;;
6485;SDS011;3276;48.490;9.222;2024-01-30T03:20:57;9.20;;;6.10;;
6485;SDS011;3276;48.490;9.222;2024-01-30T03:23:22;9.77;;;6.57;;
6485;SDS011;3276;48.490;9.222;2024-01-30T03:25:48;7.93;;;6.00;;
6485;SDS011;3276;48.490;9.222;2024-01-30T03:28:13;7.30;;;4.80;;
6485;SDS011;3276;48.490;9.222;2024-01-30T03:30:39;6.53;;;4.90;;
6485;SDS011;3276;48.490;9.222;2024-01-30T03:33:04;7.87;;;4.63;;
6485;SDS011;3276;48.490;9.222;2024-01-30T03:35:30;14.20;;;7.00;;
6485;SDS011;3276;48.490;9.222;2024-01-30T03:37:55;8.00;;;4.87;;
6485;SDS011;3276;48.490;9.222;2024-01-30T03:40:21;7.10;;;4.80;;
6485;SDS011;3276;48.490;9.222;2024-01-30T03:42:46;7.53;;;5.60;;
6485;SDS011;3276;48.490;9.222;2024-01-30T03:45:12;9.10;;;4.90;;
6485;SDS011;3276;48.490;9.222;2024-01-30T03:47:37;6.73;;;5.30;;
6485;SDS011;3276;48.490;9.222;2024-01-30T03:50:03;9.23;;;4.63;;
6485;SDS011;3276;48.490;9.222;2024-01-30T03:52:29;6.85;;;5.63;;
6485;SDS011;3276;48.490;9.222;2024-01-30T03:54:55;11.87;;;6.00;;
6485;SDS011;3276;48.490;9.222;2024-01-30T03:57:20;7.40;;;6.13;;
6485;SDS011;3276;48.490;9.222;2024-01-30T03:59:47;7.38;;;4.88;;
6485;SDS011;3276;48.490;9.222;2024-01-30T04:02:12;6.23;;;4.27;;
6485;SDS011;3276;48.490;9.222;2024-01-30T04:04:38;6.10;;;4.40;;
6485;SDS011;3276;48.490;9.222;2024-01-30T04:07:03;8.73;;;5.23;;
6485;SDS011;3276;48.490;9.222;2024-01-30T04:09:29;7.83;;;4.87;;
6485;SDS011;3276;48.490;9.222;2024-01-30T04:11:54;7.07;;;5.30;;
6485;SDS011;3276;48.490;9.222;2024-01-30T04:14:20;6.03;;;4.83;;
6485;SDS011;3276;48.490;9.222;2024-01-30T04:16:45;7.73;;;5.63;;
6485;SDS011;3276;48.490;9.222;2024-01-30T04:19:11;22.03;;;5.27;;
6485;SDS011;3276;48.490;9.222;2024-01-30T04:21:36;6.27;;;4.30;;
6485;SDS011;3276;48.490;9.222;2024-01-30T04:24:02;10.20;;;5.37;;
6485;SDS011;3276;48.490;9.222;2024-01-30T04:26:28;7.13;;;5.57;;
6485;SDS011;3276;48.490;9.222;2024-01-30T04:28:53;7.73;;;5.33;;
6485;SDS011;3276;48.490;9.222;2024-01-30T04:31:19;7.67;;;5.27;;
6485;SDS011;3276;48.490;9.222;2024-01-30T04:33:45;9.03;;;5.60;;
6485;SDS011;3276;48.490;9.222;2024-01-30T04:36:10;9.80;;;5.83;;
6485;SDS011;3276;48.490;9.222;2024-01-30T04:38:36;8.23;;;5.80;;
6485;SDS011;3276;48.490;9.222;2024-01-30T04:41:03;9.27;;;5.80;;
6485;SDS011;3276;48.490;9.222;2024-01-30T04:43:29;10.50;;;5.53;;
6485;SDS011;3276;48.490;9.222;2024-01-30T04:45:55;9.00;;;5.15;;
6485;SDS011;3276;48.490;9.222;2024-01-30T04:48:20;6.40;;;5.30;;
6485;SDS011;3276;48.490;9.222;2024-01-30T04:50:46;6.50;;;5.47;;
6485;SDS011;3276;48.490;9.222;2024-01-30T04:53:11;9.97;;;5.90;;
6485;SDS011;3276;48.490;9.222;2024-01-30T04:55:37;10.73;;;5.53;;
6485;SDS011;3276;48.490;9.222;2024-01-30T04:58:02;9.83;;;4.77;;
6485;SDS011;3276;48.490;9.222;2024-01-30T05:00:28;7.93;;;4.43;;
6485;SDS011;3276;48.490;9.222;2024-01-30T05:02:56;7.80;;;5.07;;
6485;SDS011;3276;48.490;9.222;2024-01-30T05:05:22;9.77;;;6.10;;
6485;SDS011;3276;48.490;9.222;2024-01-30T05:07:47;7.50;;;5.40;;
6485;SDS011;3276;48.490;9.222;2024-01-30T05:10:14;7.50;;;5.10;;
6485;SDS011;3276;48.490;9.222;2024-01-30T05:12:39;10.50;;;5.57;;
6485;SDS011;3276;48.490;9.222;2024-01-30T05:15:05;8.13;;;5.87;;
6485;SDS011;3276;48.490;9.222;2024-01-30T05:17:31;10.60;;;5.60;;
6485;SDS011;3276;48.490;9.222;2024-01-30T05:19:57;6.50;;;4.90;;
6485;SDS011;3276;48.490;9.222;2024-01-30T05:22:22;8.27;;;4.70;;
6485;SDS011;3276;48.490;9.222;2024-01-30T05:24:48;11.67;;;6.13;;
6485;SDS011;3276;48.490;9.222;2024-01-30T05:27:13;5.70;;;4.93;;
6485;SDS011;3276;48.490;9.222;2024-01-30T05:29:39;7.80;;;4.77;;
6485;SDS011;3276;48.490;9.222;2024-01-30T05:32:06;4.70;;;3.83;;
6485;SDS011;3276;48.490;9.222;2024-01-30T05:34:31;6.77;;;4.77;;
6485;SDS011;3276;48.490;9.222;2024-01-30T05:36:57;7.55;;;5.22;;
6485;SDS011;3276;48.490;9.222;2024-01-30T05:39:23;8.60;;;5.60;;
6485;SDS011;3276;48.490;9.222;2024-01-30T05:41:48;6.90;;;5.43;;
6485;SDS011;3276;48.490;9.222;2024-01-30T05:44:14;7.50;;;4.67;;
6485;SDS011;3276;48.490;9.222;2024-01-30T05:46:39;9.97;;;4.43;;
6485;SDS011;3276;48.490;9.222;2024-01-30T05:49:05;8.50;;;6.07;;
6485;SDS011;3276;48.490;9.222;2024-01-30T05:51:31;9.10;;;5.07;;
6485;SDS011;3276;48.490;9.222;2024-01-30T05:53:56;7.50;;;5.00;;
6485;SDS011;3276;48.490;9.222;2024-01-30T05:56:22;9.20;;;5.47;;
6485;SDS011;3276;48.490;9.222;2024-01-30T05:58:47;6.57;;;4.50;;
6485;SDS011;3276;48.490;9.222;2024-01-30T06:01:15;9.50;;;5.68;;
6485;SDS011;3276;48.490;9.222;2024-01-30T06:03:40;9.80;;;5.90;;
6485;SDS011;3276;48.490;9.222;2024-01-30T06:06:08;6.03;;;5.28;;
6485;SDS011;3276;48.490;9.222;2024-01-30T06:08:33;7.27;;;5.07;;
6485;SDS011;3276;48.490;9.222;2024-01-30T06:10:59;10.23;;;6.20;;
6485;SDS011;3276;48.490;9.222;2024-01-30T06:13:25;5.90;;;4.32;;
6485;SDS011;3276;48.490;9.222;2024-01-30T06:15:51;9.40;;;5.67;;
6485;SDS011;3276;48.490;9.222;2024-01-30T06:18:17;9.90;;;5.03;;
6485;SDS011;3276;48.490;9.222;2024-01-30T06:20:42;6.80;;;4.60;;
6485;SDS011;3276;48.490;9.222;2024-01-30T06:23:08;9.00;;;5.90;;
6485;SDS011;3276;48.490;9.222;2024-01-30T06:25:34;5.63;;;4.27;;
6485;SDS011;3276;48.490;9.222;2024-01-30T06:27:59;5.83;;;4.67;;
6485;SDS011;3276;48.490;9.222;2024-01-30T06:30:25;10.60;;;5.03;;
6485;SDS011;3276;48.490;9.222;2024-01-30T06:32:50;7.57;;;4.70;;
6485;SDS011;3276;48.490;9.222;2024-01-30T06:35:16;7.93;;;4.50;;
6485;SDS011;3276;48.490;9.222;2024-01-30T06:37:42;6.32;;;5.00;;
6485;SDS011;3276;48.490;9.222;2024-01-30T06:40:08;6.83;;;5.70;;
6485;SDS011;3276;48.490;9.222;2024-01-30T06:42:34;8.68;;;6.00;;
6485;SDS011;3276;48.490;9.222;2024-01-30T06:44:59;7.20;;;5.40;;
6485;SDS011;3276;48.490;9.222;2024-01-30T06:47:25;9.40;;;6.63;;
6485;SDS011;3276;48.490;9.222;2024-01-30T06:49:50;10.43;;;7.03;;
6485;SDS011;3276;48.490;9.222;2024-01-30T06:52:16;13.30;;;7.40;;
6485;SDS011;3276;48.490;9.222;2024-01-30T06:54:41;13.07;;;9.00;;
6485;SDS011;3276;48.490;9.222;2024-01-30T06:57:07;15.87;;;8.30;;
6485;SDS011;3276;48.490;9.222;2024-01-30T06:59:36;10.60;;;8.30;;
6485;SDS011;3276;48.490;9.222;2024-01-30T07:02:02;14.20;;;7.70;;
6485;SDS011;3276;48.490;9.222;2024-01-30T07:04:28;9.60;;;7.50;;
6485;SDS011;3276;48.490;9.222;2024-01-30T07:06:53;7.40;;;5.90;;
6485;SDS011;3276;48.490;9.222;2024-01-30T07:09:19;6.57;;;5.20;;
6485;SDS011;3276;48.490;9.222;2024-01-30T07:11:45;7.57;;;6.57;;
6485;SDS011;3276;48.490;9.222;2024-01-30T07:14:10;20.53;;;5.80;;
6485;SDS011;3276;48.490;9.222;2024-01-30T07:16:36;8.43;;;6.27;;
6485;SDS011;3276;48.490;9.222;2024-01-30T07:19:01;7.67;;;5.53;;
6485;SDS011;3276;48.490;9.222;2024-01-30T07:21:27;10.67;;;6.87;;
6485;SDS011;3276;48.490;9.222;2024-01-30T07:23:53;11.67;;;5.17;;
6485;SDS011;3276;48.490;9.222;2024-01-30T07:26:20;9.52;;;4.75;;
6485;SDS011;3276;48.490;9.222;2024-01-30T07:28:45;7.70;;;4.50;;
6485;SDS011;3276;48.490;9.222;2024-01-30T07:31:11;13.30;;;7.20;;
6485;SDS011;3276;48.490;9.222;2024-01-30T07:33:37;11.27;;;5.87;;
6485;SDS011;3276;48.490;9.222;2024-01-30T07:36:02;10.53;;;5.83;;
6485;SDS011;3276;48.490;9.222;2024-01-30T07:38:28;6.40;;;4.60;;
6485;SDS011;3276;48.490;9.222;2024-01-30T07:40:56;8.85;;;6.20;;
6485;SDS011;3276;48.490;9.222;2024-01-30T07:43:22;10.20;;;5.77;;
6485;SDS011;3276;48.490;9.222;2024-01-30T07:45:47;8.43;;;5.87;;
6485;SDS011;3276;48.490;9.222;2024-01-30T07:48:13;9.03;;;5.20;;
6485;SDS011;3276;48.490;9.222;2024-01-30T07:50:39;7.40;;;5.47;;
6485;SDS011;3276;48.490;9.222;2024-01-30T07:53:04;10.90;;;6.73;;
6485;SDS011;3276;48.490;9.222;2024-01-30T07:55:30;7.87;;;5.80;;
6485;SDS011;3276;48.490;9.222;2024-01-30T07:57:57;7.55;;;5.22;;
6485;SDS011;3276;48.490;9.222;2024-01-30T08:00:23;6.75;;;5.57;;
6485;SDS011;3276;48.490;9.222;2024-01-30T08:02:49;8.50;;;6.97;;
6485;SDS011;3276;48.490;9.222;2024-01-30T08:05:15;9.10;;;5.70;;
6485;SDS011;3276;48.490;9.222;2024-01-30T08:07:41;9.10;;;6.30;;
6485;SDS011;3276;48.490;9.222;2024-01-30T08:10:11;9.70;;;6.38;;
6485;SDS011;3276;48.490;9.222;2024-01-30T08:12:38;16.70;;;8.73;;
6485;SDS011;3276;48.490;9.222;2024-01-30T08:15:03;24.70;;;14.47;;
6485;SDS011;3276;48.490;9.222;2024-01-30T08:17:29;21.90;;;12.35;;
6485;SDS011;3276;48.490;9.222;2024-01-30T08:19:55;15.80;;;10.27;;
6485;SDS011;3276;48.490;9.222;2024-01-30T08:22:20;13.33;;;10.00;;
6485;SDS011;3276;48.490;9.222;2024-01-30T08:24:46;13.70;;;8.20;;
6485;SDS011;3276;48.490;9.222;2024-01-30T08:27:11;13.43;;;7.83;;
6485;SDS011;3276;48.490;9.222;2024-01-30T08:29:37;10.07;;;7.70;;
6485;SDS011;3276;48.490;9.222;2024-01-30T08:32:03;15.10;;;7.50;;
6485;SDS011;3276;48.490;9.222;2024-01-30T08:34:30;11.10;;;6.97;;
6485;SDS011;3276;48.490;9.222;2024-01-30T08:36:56;8.63;;;7.23;;
6485;SDS011;3276;48.490;9.222;2024-01-30T08:39:21;12.00;;;7.83;;
6485;SDS011;3276;48.490;9.222;2024-01-30T08:41:47;11.53;;;7.30;;
6485;SDS011;3276;48.490;9.222;2024-01-30T08:44:12;12.30;;;7.77;;
6485;SDS011;3276;48.490;9.222;2024-01-30T08:46:38;9.63;;;7.40;;
6485;SDS011;3276;48.490;9.222;2024-01-30T08:49:03;12.40;;;7.20;;
6485;SDS011;3276;48.490;9.222;2024-01-30T08:51:29;12.77;;;7.73;;
6485;SDS011;3276;48.490;9.222;2024-01-30T08:53:55;14.50;;;8.70;;
6485;SDS011;3276;48.490;9.222;2024-01-30T08:56:21;9.67;;;6.83;;
6485;SDS011;3276;48.490;9.222;2024-01-30T08:58:46;10.53;;;8.00;;
6485;SDS011;3276;48.490;9.222;2024-01-30T09:01:12;11.20;;;8.33;;
6485;SDS011;3276;48.490;9.222;2024-01-30T09:03:38;11.57;;;7.90;;
6485;SDS011;3276;48.490;9.222;2024-01-30T09:06:09;7.27;;;6.00;;
6485;SDS011;3276;48.490;9.222;2024-01-30T09:08:37;10.90;;;7.33;;
6485;SDS011;3276;48.490;9.222;2024-01-30T09:11:13;14.00;;;8.50;;
6485;SDS011;3276;48.490;9.222;2024-01-30T09:13:39;14.03;;;7.37;;
6485;SDS011;3276;48.490;9.222;2024-01-30T09:16:05;10.77;;;7.10;;
6485;SDS011;3276;48.490;9.222;2024-01-30T09:18:31;9.07;;;7.70;;
6485;SDS011;3276;48.490;9.222;2024-01-30T09:20:57;12.50;;;7.37;;
6485;SDS011;3276;48.490;9.222;2024-01-30T09:23:23;11.17;;;7.57;;
6485;SDS011;3276;48.490;9.222;2024-01-30T09:25:49;10.70;;;7.10;;
6485;SDS011;3276;48.490;9.222;2024-01-30T09:28:15;9.27;;;7.73;;
6485;SDS011;3276;48.490;9.222;2024-01-30T09:30:42;14.03;;;8.77;;
6485;SDS011;3276;48.490;9.222;2024-01-30T09:33:07;11.13;;;8.27;;
6485;SDS011;3276;48.490;9.222;2024-01-30T09:35:33;16.37;;;7.57;;
6485;SDS011;3276;48.490;9.222;2024-01-30T09:37:59;8.67;;;6.23;;
6485;SDS011;3276;48.490;9.222;2024-01-30T09:40:24;9.17;;;6.70;;
6485;SDS011;3276;48.490;9.222;2024-01-30T09:42:51;8.23;;;6.10;;
6485;SDS011;3276;48.490;9.222;2024-01-30T09:45:19;7.20;;;5.97;;
6485;SDS011;3276;48.490;9.222;2024-01-30T09:47:48;7.73;;;6.20;;
6485;SDS011;3276;48.490;9.222;2024-01-30T09:50:14;9.47;;;7.10;;
6485;SDS011;3276;48.490;9.222;2024-01-30T09:52:40;7.13;;;6.40;;
6485;SDS011;3276;48.490;9.222;2024-01-30T09:55:07;7.87;;;6.57;;
6485;SDS011;3276;48.490;9.222;2024-01-30T09:57:36;7.40;;;5.53;;
6485;SDS011;3276;48.490;9.222;2024-01-30T10:00:02;7.70;;;6.07;;
6485;SDS011;3276;48.490;9.222;2024-01-30T10:02:30;9.37;;;6.80;;
6485;SDS011;3276;48.490;9.222;2024-01-30T10:04:57;8.90;;;6.30;;
6485;SDS011;3276;48.490;9.222;2024-01-30T10:07:22;9.30;;;6.43;;
6485;SDS011;3276;48.490;9.222;2024-01-30T10:09:48;10.77;;;6.93;;
6485;SDS011;3276;48.490;9.222;2024-01-30T10:12:14;10.50;;;7.70;;
6485;SDS011;3276;48.490;9.222;2024-01-30T10:14:40;7.83;;;6.23;;
6485;SDS011;3276;48.490;9.222;2024-01-30T10:17:07;11.40;;;7.87;;
6485;SDS011;3276;48.490;9.222;2024-01-30T10:19:40;9.50;;;7.27;;
6485;SDS011;3276;48.490;9.222;2024-01-30T10:22:06;8.17;;;7.37;;
6485;SDS011;3276;48.490;9.222;2024-01-30T10:24:35;12.40;;;7.80;;
6485;SDS011;3276;48.490;9.222;2024-01-30T10:27:01;12.10;;;7.57;;
6485;SDS011;3276;48.490;9.222;2024-01-30T10:29:26;7.37;;;6.33;;
6485;SDS011;3276;48.490;9.222;2024-01-30T10:31:59;9.43;;;7.17;;
6485;SDS011;3276;48.490;9.222;2024-01-30T10:34:29;8.97;;;6.53;;
6485;SDS011;3276;48.490;9.222;2024-01-30T10:37:16;10.33;;;7.27;;
6485;SDS011;3276;48.490;9.222;2024-01-30T10:39:42;12.13;;;8.37;;
6485;SDS011;3276;48.490;9.222;2024-01-30T10:42:15;11.63;;;7.63;;
6485;SDS011;3276;48.490;9.222;2024-01-30T10:47:41;8.87;;;6.93;;
6485;SDS011;3276;48.490;9.222;2024-01-30T10:50:09;16.47;;;7.97;;
6485;SDS011;3276;48.490;9.222;2024-01-30T10:52:35;9.93;;;7.73;;
6485;SDS011;3276;48.490;9.222;2024-01-30T10:55:02;9.40;;;8.40;;
6485;SDS011;3276;48.490;9.222;2024-01-30T10:57:31;9.83;;;7.97;;
6485;SDS011;3276;48.490;9.222;2024-01-30T10:59:59;16.90;;;8.90;;
6485;SDS011;3276;48.490;9.222;2024-01-30T11:02:26;10.90;;;9.60;;
6485;SDS011;3276;48.490;9.222;2024-01-30T11:04:59;10.77;;;9.60;;
6485;SDS011;3276;48.490;9.222;2024-01-30T11:07:26;10.30;;;8.60;;
6485;SDS011;3276;48.490;9.222;2024-01-30T11:09:54;18.43;;;8.67;;
6485;SDS011;3276;48.490;9.222;2024-01-30T11:12:28;9.10;;;7.90;;
6485;SDS011;3276;48.490;9.222;2024-01-30T11:15:04;8.53;;;7.63;;
6485;SDS011;3276;48.490;9.222;2024-01-30T11:20:20;10.47;;;9.00;;
6485;SDS011;3276;48.490;9.222;2024-01-30T11:22:47;9.47;;;8.20;;
6485;SDS011;3276;48.490;9.222;2024-01-30T11:25:15;13.23;;;8.90;;
6485;SDS011;3276;48.490;9.222;2024-01-30T11:27:44;11.63;;;9.30;;
6485;SDS011;3276;48.490;9.222;2024-01-30T11:30:11;10.27;;;8.60;;
6485;SDS011;3276;48.490;9.222;2024-01-30T11:32:46;12.83;;;8.03;;
6485;SDS011;3276;48.490;9.222;2024-01-30T11:35:29;10.03;;;7.37;;
6485;SDS011;3276;48.490;9.222;2024-01-30T11:37:59;10.93;;;8.63;;
6485;SDS011;3276;48.490;9.222;2024-01-30T11:40:29;16.13;;;8.80;;
6485;SDS011;3276;48.490;9.222;2024-01-30T11:42:55;8.97;;;7.23;;
6485;SDS011;3276;48.490;9.222;2024-01-30T11:45:23;7.80;;;6.10;;
6485;SDS011;3276;48.490;9.222;2024-01-30T11:47:48;9.43;;;6.30;;
6485;SDS011;3276;48.490;9.222;2024-01-30T11:50:14;8.27;;;6.10;;
6485;SDS011;3276;48.490;9.222;2024-01-30T11:52:40;9.13;;;6.43;;
6485;SDS011;3276;48.490;9.222;2024-01-30T11:55:08;11.93;;;6.40;;
6485;SDS011;3276;48.490;9.222;2024-01-30T11:57:34;6.93;;;6.07;;
6485;SDS011;3276;48.490;9.222;2024-01-30T12:00:02;11.90;;;5.97;;
6485;SDS011;3276;48.490;9.222;2024-01-30T12:02:38;6.97;;;6.27;;
6485;SDS011;3276;48.490;9.222;2024-01-30T12:05:05;9.40;;;6.37;;
6485;SDS011;3276;48.490;9.222;2024-01-30T12:07:31;7.53;;;6.60;;
6485;SDS011;3276;48.490;9.222;2024-01-30T12:09:57;8.00;;;5.80;;
6485;SDS011;3276;48.490;9.222;2024-01-30T12:12:24;7.33;;;5.97;;
6485;SDS011;3276;48.490;9.222;2024-01-30T12:14:52;8.00;;;6.57;;
6485;SDS011;3276;48.490;9.222;2024-01-30T12:17:28;5.60;;;5.10;;
6485;SDS011;3276;48.490;9.222;2024-01-30T12:20:17;5.93;;;5.33;;
6485;SDS011;3276;48.490;9.222;2024-01-30T12:22:43;4.43;;;4.03;;
6485;SDS011;3276;48.490;9.222;2024-01-30T12:25:10;5.50;;;4.90;;
6485;SDS011;3276;48.490;9.222;2024-01-30T12:27:38;5.13;;;4.73;;
6485;SDS011;3276;48.490;9.222;2024-01-30T12:30:07;5.43;;;4.90;;
6485;SDS011;3276;48.490;9.222;2024-01-30T12:32:37;5.07;;;4.20;;
6485;SDS011;3276;48.490;9.222;2024-01-30T12:35:06;4.97;;;4.50;;
6485;SDS011;3276;48.490;9.222;2024-01-30T12:37:34;5.17;;;4.67;;
6485;SDS011;3276;48.490;9.222;2024-01-30T12:40:00;5.17;;;4.70;;
6485;SDS011;3276;48.490;9.222;2024-01-30T12:42:26;4.27;;;3.87;;
6485;SDS011;3276;48.490;9.222;2024-01-30T12:44:52;4.97;;;4.50;;
6485;SDS011;3276;48.490;9.222;2024-01-30T12:47:17;5.43;;;4.53;;
6485;SDS011;3276;48.490;9.222;2024-01-30T12:49:43;4.67;;;4.20;;
6485;SDS011;3276;48.490;9.222;2024-01-30T12:52:10;4.63;;;4.23;;
6485;SDS011;3276;48.490;9.222;2024-01-30T12:54:36;5.30;;;4.37;;
6485;SDS011;3276;48.490;9.222;2024-01-30T12:57:02;4.97;;;4.50;;
6485;SDS011;3276;48.490;9.222;2024-01-30T12:59:28;4.90;;;4.37;;
6485;SDS011;3276;48.490;9.222;2024-01-30T13:01:54;4.67;;;4.23;;
6485;SDS011;3276;48.490;9.222;2024-01-30T13:04:19;6.00;;;5.40;;
6485;SDS011;3276;48.490;9.222;2024-01-30T13:06:45;5.10;;;4.70;;
6485;SDS011;3276;48.490;9.222;2024-01-30T13:09:10;5.40;;;4.90;;
6485;SDS011;3276;48.490;9.222;2024-01-30T13:11:37;7.00;;;5.30;;
6485;SDS011;3276;48.490;9.222;2024-01-30T13:14:03;7.17;;;5.10;;
6485;SDS011;3276;48.490;9.222;2024-01-30T13:16:28;5.23;;;4.70;;
6485;SDS011;3276;48.490;9.222;2024-01-30T13:18:54;4.53;;;4.13;;
6485;SDS011;3276;48.490;9.222;2024-01-30T13:21:20;4.63;;;3.90;;
6485;SDS011;3276;48.490;9.222;2024-01-30T13:23:46;5.40;;;4.40;;
6485;SDS011;3276;48.490;9.222;2024-01-30T13:26:12;4.90;;;4.50;;
6485;SDS011;3276;48.490;9.222;2024-01-30T13:28:40;4.30;;;3.90;;
6485;SDS011;3276;48.490;9.222;2024-01-30T13:31:08;4.10;;;3.67;;
6485;SDS011;3276;48.490;9.222;2024-01-30T13:33:41;4.87;;;4.00;;
6485;SDS011;3276;48.490;9.222;2024-01-30T13:36:09;4.70;;;4.00;;
6485;SDS011;3276;48.490;9.222;2024-01-30T13:38:38;6.60;;;5.30;;
6485;SDS011;3276;48.490;9.222;2024-01-30T13:41:04;6.40;;;5.77;;
6485;SDS011;3276;48.490;9.222;2024-01-30T13:43:30;9.07;;;5.00;;
6485;SDS011;3276;48.490;9.222;2024-01-30T13:45:55;5.43;;;4.80;;
6485;SDS011;3276;48.490;9.222;2024-01-30T13:48:21;6.83;;;4.57;;
6485;SDS011;3276;48.490;9.222;2024-01-30T13:50:47;6.60;;;4.50;;
6485;SDS011;3276;48.490;9.222;2024-01-30T13:53:13;5.07;;;4.10;;
6485;SDS011;3276;48.490;9.222;2024-01-30T13:55:38;8.10;;;4.33;;
6485;SDS011;3276;48.490;9.222;2024-01-30T13:58:04;5.07;;;4.10;;
6485;SDS011;3276;48.490;9.222;2024-01-30T14:00:30;4.87;;;4.37;;
6485;SDS011;3276;48.490;9.222;2024-01-30T14:02:56;5.43;;;4.93;;
6485;SDS011;3276;48.490;9.222;2024-01-30T14:05:23;5.00;;;4.43;;
6485;SDS011;3276;48.490;9.222;2024-01-30T14:07:49;5.33;;;4.83;;
6485;SDS011;3276;48.490;9.222;2024-01-30T14:10:15;5.70;;;4.60;;
6485;SDS011;3276;48.490;9.222;2024-01-30T14:12:41;5.07;;;4.63;;
6485;SDS011;3276;48.490;9.222;2024-01-30T14:15:08;4.60;;;3.93;;
6485;SDS011;3276;48.490;9.222;2024-01-30T14:17:35;6.50;;;5.83;;
6485;SDS011;3276;48.490;9.222;2024-01-30T14:20:01;7.80;;;5.40;;
6485;SDS011;3276;48.490;9.222;2024-01-30T14:22:31;6.30;;;5.30;;
6485;SDS011;3276;48.490;9.222;2024-01-30T14:24:58;9.57;;;4.63;;
6485;SDS011;3276;48.490;9.222;2024-01-30T14:27:24;5.30;;;4.27;;
6485;SDS011;3276;48.490;9.222;2024-01-30T14:29:49;5.97;;;5.37;;
6485;SDS011;3276;48.490;9.222;2024-01-30T14:32:15;6.10;;;4.93;;
6485;SDS011;3276;48.490;9.222;2024-01-30T14:34:40;6.13;;;4.80;;
6485;SDS011;3276;48.490;9.222;2024-01-30T14:37:06;5.57;;;5.00;;
6485;SDS011;3276;48.490;9.222;2024-01-30T14:39:32;6.13;;;4.70;;
6485;SDS011;3276;48.490;9.222;2024-01-30T14:41:58;4.90;;;4.07;;
6485;SDS011;3276;48.490;9.222;2024-01-30T14:44:24;4.83;;;4.30;;
6485;SDS011;3276;48.490;9.222;2024-01-30T14:46:50;4.47;;;3.83;;
6485;SDS011;3276;48.490;9.222;2024-01-30T14:49:16;4.67;;;4.27;;
6485;SDS011;3276;48.490;9.222;2024-01-30T14:51:41;4.43;;;3.87;;
6485;SDS011;3276;48.490;9.222;2024-01-30T14:54:07;4.43;;;4.03;;
6485;SDS011;3276;48.490;9.222;2024-01-30T14:56:33;3.90;;;3.60;;
6485;SDS011;3276;48.490;9.222;2024-01-30T14:58:59;4.37;;;3.97;;
6485;SDS011;3276;48.490;9.222;2024-01-30T15:01:25;4.93;;;4.43;;
6485;SDS011;3276;48.490;9.222;2024-01-30T15:03:50;7.23;;;5.40;;
6485;SDS011;3276;48.490;9.222;2024-01-30T15:06:20;4.10;;;3.77;;
6485;SDS011;3276;48.490;9.222;2024-01-30T15:08:48;6.97;;;5.80;;
6485;SDS011;3276;48.490;9.222;2024-01-30T15:11:14;12.13;;;4.97;;